createdAt,value
2019-04-20T00:00:18.993Z,16.1
2019-04-20T00:01:26.682Z,16
2019-04-20T00:02:33.673Z,16.1
2019-04-20T00:03:41.611Z,16.2
2019-04-20T00:04:47.481Z,15.9
2019-04-20T00:05:53.060Z,16
2019-04-20T00:06:56.383Z,15.9
2019-04-20T00:08:01.087Z,15.9
2019-04-20T00:09:22.864Z,15.9
2019-04-20T00:10:42.408Z,15.9
2019-04-20T00:12:06.671Z,15.9
2019-04-20T00:13:28.511Z,15.8
2019-04-20T00:14:42.459Z,15.8
2019-04-20T00:15:45.041Z,15.9
2019-04-20T00:16:48.308Z,16
2019-04-20T00:17:53.791Z,16
2019-04-20T00:19:04.988Z,15.9
2019-04-20T00:20:15.871Z,15.9
2019-04-20T00:21:25.292Z,15.6
2019-04-20T00:22:34.068Z,15.8
2019-04-20T00:23:48.110Z,15.9
2019-04-20T00:24:55.599Z,15.8
2019-04-20T00:26:14.570Z,15.7
2019-04-20T00:27:48.451Z,15.6
2019-04-20T00:29:29.088Z,15.8
2019-04-20T00:31:12.205Z,15.8
2019-04-20T00:32:49.882Z,15.8
2019-04-20T00:34:15.444Z,15.9
2019-04-20T00:35:27.482Z,15.8
2019-04-20T00:36:30.730Z,15.8
2019-04-20T00:37:33.865Z,15.6
2019-04-20T00:38:42.466Z,15.8
2019-04-20T00:39:55.109Z,15.8
2019-04-20T00:41:02.599Z,15.8
2019-04-20T00:42:11.582Z,15.7
2019-04-20T00:43:20.821Z,15.8
2019-04-20T00:44:35.721Z,15.6
2019-04-20T00:45:51.501Z,15.5
2019-04-20T00:47:15.385Z,15.6
2019-04-20T00:48:45.000Z,15.6
2019-04-20T00:50:11.161Z,15.5
2019-04-20T00:51:56.610Z,15.6
2019-04-20T00:53:39.548Z,15.8
2019-04-20T00:54:49.412Z,15.8
2019-04-20T00:55:52.939Z,15.8
2019-04-20T00:57:05.666Z,15.9
2019-04-20T00:58:27.717Z,15.7
2019-04-20T01:00:04.484Z,15.5
2019-04-20T01:01:47.334Z,15.3
2019-04-20T01:03:27.532Z,15.4
2019-04-20T01:05:03.827Z,15.3
2019-04-20T01:06:40.471Z,15.3
2019-04-20T01:08:08.566Z,15.6
2019-04-20T01:09:12.050Z,15.1
2019-04-20T01:10:15.169Z,15.2
2019-04-20T01:11:22.862Z,15.3
2019-04-20T01:12:36.533Z,15.3
2019-04-20T01:13:48.675Z,15.1
2019-04-20T01:15:00.980Z,15.2
2019-04-20T01:16:21.265Z,15.5
2019-04-20T01:17:41.445Z,15.2
2019-04-20T01:18:46.854Z,15.2
2019-04-20T01:19:52.280Z,15.2
2019-04-20T01:20:57.934Z,14.9
2019-04-20T01:22:18.348Z,15
2019-04-20T01:23:35.355Z,15.1
2019-04-20T01:24:51.948Z,15
2019-04-20T01:26:03.110Z,15
2019-04-20T01:27:31.987Z,15.2
2019-04-20T01:29:11.956Z,15.1
2019-04-20T01:30:35.703Z,15.2
2019-04-20T01:32:04.291Z,15.2
2019-04-20T01:33:31.551Z,15.1
2019-04-20T01:34:58.421Z,15.3
2019-04-20T01:36:40.468Z,15.3
2019-04-20T01:38:20.753Z,15.1
2019-04-20T01:39:46.607Z,14.9
2019-04-20T01:40:56.830Z,14.7
2019-04-20T01:42:02.300Z,14.7
2019-04-20T01:43:05.652Z,14.7
2019-04-20T01:44:07.148Z,14.7
2019-04-20T01:45:14.383Z,14.6
2019-04-20T01:46:29.728Z,14.6
2019-04-20T01:47:39.626Z,14.6
2019-04-20T01:48:50.577Z,14.6
2019-04-20T01:49:57.385Z,14.8
2019-04-20T01:51:19.443Z,14.6
2019-04-20T01:52:42.435Z,14.9
2019-04-20T01:54:15.709Z,15
2019-04-20T01:56:07.015Z,14.8
2019-04-20T01:57:44.845Z,14.6
2019-04-20T01:59:27.359Z,14.5
2019-04-20T02:00:54.733Z,14.5
2019-04-20T02:02:05.054Z,14.5
2019-04-20T02:03:14.899Z,14.6
2019-04-20T02:04:24.700Z,14.6
2019-04-20T02:05:35.822Z,15
2019-04-20T02:06:46.990Z,14.9
2019-04-20T02:07:57.470Z,15
2019-04-20T02:09:05.227Z,15.2
2019-04-20T02:10:18.601Z,14.9
2019-04-20T02:11:38.142Z,15
2019-04-20T02:12:50.230Z,14.8
2019-04-20T02:14:03.557Z,14.6
2019-04-20T02:15:19.669Z,14.6
2019-04-20T02:16:40.552Z,14.7
2019-04-20T02:18:14.792Z,14.7
2019-04-20T02:20:04.412Z,14.5
2019-04-20T02:23:38.394Z,14.3
2019-04-20T02:30:37.897Z,14.4
2019-04-20T02:35:52.595Z,14.1
2019-04-20T02:38:02.660Z,14.3
2019-04-20T02:42:44.406Z,14.5
2019-04-20T02:48:49.784Z,14.1
2019-04-20T02:50:42.936Z,14.2
2019-04-20T02:52:48.294Z,13.9
2019-04-20T02:56:10.803Z,14.1
2019-04-20T02:58:06.588Z,14
2019-04-20T03:00:37.843Z,14.1
2019-04-20T03:03:38.984Z,14.2
2019-04-20T03:05:02.336Z,14.2
2019-04-20T03:06:35.983Z,14
2019-04-20T03:08:21.978Z,14.4
2019-04-20T03:10:10.566Z,13.9
2019-04-20T03:12:15.317Z,14
2019-04-20T03:15:47.967Z,13.8
2019-04-20T03:18:02.056Z,13.9
2019-04-20T03:19:55.444Z,14.2
2019-04-20T03:23:29.569Z,14.3
2019-04-20T03:25:47.966Z,13.7
2019-04-20T03:27:35.421Z,14
2019-04-20T03:29:36.749Z,14.2
2019-04-20T03:31:40.778Z,14.3
2019-04-20T03:34:37.376Z,14
